createdAt,value
2023-04-02T00:04:26.576Z,9.18
2023-04-02T00:09:33.547Z,10.77
2023-04-02T00:14:36.919Z,9.73
2023-04-02T00:19:46.047Z,6.50
2023-04-02T00:24:50.906Z,5.35
2023-04-02T00:29:54.921Z,5.60
2023-04-02T00:34:58.050Z,10.65
2023-04-02T00:40:07.587Z,10.45
2023-04-02T00:45:18.974Z,15.70
2023-04-02T00:50:30.802Z,11.25
2023-04-02T00:55:36.194Z,11.18
2023-04-02T01:00:39.020Z,13.07
2023-04-02T01:11:29.480Z,6.75
2023-04-02T01:16:32.462Z,5.35
2023-04-02T01:21:34.884Z,5.03
2023-04-02T01:26:50.615Z,7.50
2023-04-02T01:31:57.507Z,4.80
2023-04-02T01:37:06.801Z,8.95
2023-04-02T01:42:25.896Z,4.97
2023-04-02T01:47:29.945Z,5.80
2023-04-02T01:52:38.686Z,7.72
2023-04-02T01:57:43.232Z,7.28
2023-04-02T02:02:50.239Z,6.63
2023-04-02T02:07:54.771Z,6.80
2023-04-02T02:13:00.638Z,8.85
2023-04-02T02:18:05.031Z,6.88
2023-04-02T02:23:07.640Z,7.88
2023-04-02T02:28:23.306Z,9.00
2023-04-02T02:33:27.359Z,6.97
2023-04-02T02:38:34.412Z,6.18
2023-04-02T02:43:47.132Z,8.15
2023-04-02T02:48:50.866Z,7.20
2023-04-02T02:53:55.481Z,5.68
2023-04-02T03:04:06.330Z,5.70
2023-04-02T03:09:28.106Z,7.28
2023-04-02T03:14:36.234Z,7.13
2023-04-02T03:19:46.281Z,9.40
2023-04-02T03:25:02.357Z,12.45
2023-04-02T03:30:25.001Z,7.85
2023-04-02T03:35:33.380Z,7.45
2023-04-02T03:40:40.362Z,10.07
2023-04-02T03:45:45.731Z,9.88
2023-04-02T03:50:52.663Z,9.13
2023-04-02T03:55:56.304Z,7.40
2023-04-02T04:01:08.634Z,7.32
2023-04-02T04:06:20.175Z,11.98
2023-04-02T04:11:25.145Z,7.15
2023-04-02T04:16:34.713Z,8.82
2023-04-02T04:21:37.866Z,8.40
2023-04-02T04:27:20.718Z,14.20
2023-04-02T04:32:35.793Z,11.10
2023-04-02T04:37:49.963Z,9.05
2023-04-02T04:42:56.336Z,9.82
2023-04-02T04:48:04.878Z,9.48
2023-04-02T04:53:20.154Z,11.13
2023-04-02T04:58:44.765Z,15.85
2023-04-02T05:04:03.761Z,12.98
2023-04-02T05:09:14.660Z,13.52
2023-04-02T05:14:17.706Z,11.70
2023-04-02T05:19:33.193Z,12.70
2023-04-02T05:24:52.019Z,11.23
2023-04-02T05:29:59.802Z,11.27
2023-04-02T05:35:06.810Z,9.95
2023-04-02T05:40:21.928Z,10.50
2023-04-02T05:45:25.589Z,10.95
2023-04-02T05:50:33.783Z,10.23
2023-04-02T05:55:45.306Z,15.27
2023-04-02T06:01:12.286Z,19.88
2023-04-02T06:06:19.451Z,21.70
2023-04-02T06:11:28.046Z,19.92
2023-04-02T06:16:32.299Z,13.60
2023-04-02T06:21:34.949Z,13.25
2023-04-02T06:26:39.820Z,10.23
2023-04-02T06:31:54.348Z,7.13
2023-04-02T06:37:00.313Z,4.60
2023-04-02T06:42:12.845Z,6.07
2023-04-02T06:47:44.610Z,4.93
2023-04-02T06:52:55.554Z,5.75
2023-04-02T06:57:59.012Z,9.55
2023-04-02T07:03:06.273Z,14.23
2023-04-02T07:08:09.852Z,17.20
2023-04-02T07:13:16.909Z,12.48
2023-04-02T07:18:30.657Z,12.20
2023-04-02T07:23:35.279Z,8.20
2023-04-02T07:28:37.859Z,8.18
2023-04-02T07:33:42.232Z,12.50
2023-04-02T07:38:45.194Z,9.15
2023-04-02T07:43:48.023Z,7.78
2023-04-02T07:48:50.529Z,7.43
2023-04-02T07:53:56.392Z,4.85
2023-04-02T07:58:59.391Z,6.43
2023-04-02T08:04:02.758Z,7.43
2023-04-02T08:09:05.733Z,7.60
2023-04-02T08:14:09.207Z,6.32
2023-04-02T08:19:11.769Z,6.30
2023-04-02T08:24:14.250Z,7.20
2023-04-02T08:29:16.658Z,5.18
2023-04-02T08:34:19.217Z,4.00
2023-04-02T08:39:21.569Z,6.35
2023-04-02T08:44:23.922Z,6.85
2023-04-02T08:49:44.061Z,5.88
2023-04-02T08:54:46.543Z,5.78
2023-04-02T08:59:51.845Z,3.47
2023-04-02T09:04:55.002Z,3.90
2023-04-02T09:09:58.510Z,3.70
2023-04-02T09:15:07.563Z,5.32
2023-04-02T09:20:19.758Z,7.38
2023-04-02T09:25:23.998Z,10.63
2023-04-02T09:30:32.393Z,3.95
2023-04-02T09:35:37.024Z,4.55
2023-04-02T09:40:47.027Z,3.10
2023-04-02T09:45:57.637Z,2.47
2023-04-02T09:51:08.399Z,1.92
2023-04-02T09:56:12.597Z,4.68
2023-04-02T10:01:29.683Z,7.25
2023-04-02T10:06:33.792Z,9.00
2023-04-02T10:16:52.348Z,12.30
2023-04-02T10:21:56.877Z,7.00
2023-04-02T10:27:18.086Z,5.82
2023-04-02T10:32:20.800Z,4.88
2023-04-02T10:37:32.649Z,5.20
2023-04-02T10:42:39.863Z,4.90
2023-04-02T10:47:45.011Z,3.67
2023-04-02T10:52:54.124Z,4.13
2023-04-02T10:57:59.478Z,5.60
2023-04-02T11:03:27.910Z,6.90
2023-04-02T11:08:41.598Z,5.00
2023-04-02T11:13:44.594Z,4.93
2023-04-02T11:19:07.368Z,4.13
2023-04-02T11:24:39.471Z,7.45
2023-04-02T11:30:01.495Z,5.25
2023-04-02T11:35:24.860Z,3.70
2023-04-02T11:40:27.499Z,5.90
2023-04-02T11:45:31.159Z,5.15
2023-04-02T11:50:38.731Z,5.47
2023-04-02T11:55:41.718Z,7.45
2023-04-02T12:00:47.551Z,7.82
2023-04-02T12:05:54.921Z,5.63
2023-04-02T12:11:01.690Z,5.82
2023-04-02T12:16:04.367Z,5.75
2023-04-02T12:21:07.139Z,9.63
2023-04-02T12:26:24.916Z,5.63
2023-04-02T12:31:28.053Z,4.03
2023-04-02T12:36:32.165Z,3.13
2023-04-02T12:41:37.211Z,5.03
2023-04-02T12:46:40.460Z,4.90
2023-04-02T12:51:43.344Z,5.75
2023-04-02T12:56:46.079Z,7.43
2023-04-02T13:02:02.802Z,8.60
2023-04-02T13:07:05.350Z,6.18
2023-04-02T13:12:23.342Z,7.60
2023-04-02T13:17:38.667Z,6.65
2023-04-02T13:22:41.696Z,5.88
2023-04-02T13:27:44.345Z,5.95
2023-04-02T13:32:46.837Z,7.05
2023-04-02T13:37:49.630Z,5.57
2023-04-02T13:42:52.419Z,4.63
2023-04-02T13:47:57.403Z,9.88
2023-04-02T13:53:04.644Z,6.32
2023-04-02T13:58:07.202Z,5.65
2023-04-02T14:03:16.790Z,6.97
2023-04-02T14:08:26.347Z,5.47
2023-04-02T14:13:39.010Z,6.95
2023-04-02T14:18:48.847Z,13.13
2023-04-02T14:24:09.917Z,8.23
2023-04-02T14:29:18.365Z,6.88
2023-04-02T14:34:39.218Z,7.35
2023-04-02T14:39:57.674Z,10.30
2023-04-02T14:45:06.587Z,8.10
2023-04-02T14:50:21.955Z,11.43
2023-04-02T14:55:31.698Z,11.40
2023-04-02T15:00:52.023Z,12.40
2023-04-02T15:05:59.356Z,12.35
2023-04-02T15:11:08.655Z,13.40
2023-04-02T15:16:17.061Z,12.38
2023-04-02T15:21:20.495Z,16.75
2023-04-02T15:26:32.248Z,13.40
2023-04-02T15:31:35.821Z,13.25
2023-04-02T15:36:38.342Z,11.43
2023-04-02T15:41:42.871Z,10.75
2023-04-02T15:46:45.230Z,13.07
2023-04-02T15:52:06.385Z,10.95
2023-04-02T15:57:30.685Z,18.27
2023-04-02T16:02:41.158Z,13.95
2023-04-02T16:07:49.853Z,8.43
2023-04-02T16:12:53.134Z,12.10
2023-04-02T16:18:03.757Z,10.70
2023-04-02T16:23:11.581Z,13.32
2023-04-02T16:28:22.312Z,16.52
2023-04-02T16:33:24.675Z,17.05
2023-04-02T16:38:45.910Z,13.45
2023-04-02T16:44:00.727Z,17.25
2023-04-02T16:49:26.888Z,12.93
2023-04-02T16:54:35.108Z,11.10
2023-04-02T16:59:46.869Z,14.35
2023-04-02T17:04:49.559Z,14.80
2023-04-02T17:09:53.474Z,13.57
2023-04-02T17:15:00.133Z,16.55
2023-04-02T17:20:02.683Z,13.80
2023-04-02T17:25:07.941Z,10.93
2023-04-02T17:30:19.080Z,11.25
2023-04-02T17:35:42.154Z,14.55
2023-04-02T17:40:53.773Z,10.02
2023-04-02T17:45:57.380Z,9.43
2023-04-02T17:50:59.978Z,6.55
2023-04-02T17:56:10.186Z,11.63
2023-04-02T18:01:31.589Z,11.65
2023-04-02T18:06:38.365Z,6.20
2023-04-02T18:11:41.344Z,11.13
2023-04-02T18:16:46.713Z,7.38
2023-04-02T18:22:21.675Z,9.80
2023-04-02T18:27:26.775Z,10.50
2023-04-02T18:32:44.690Z,9.00
2023-04-02T18:37:50.081Z,6.53
2023-04-02T18:43:04.797Z,9.10
2023-04-02T18:48:13.062Z,6.75
2023-04-02T18:53:21.185Z,10.68
2023-04-02T18:58:42.684Z,11.18
2023-04-02T19:03:57.040Z,7.40
2023-04-02T19:09:17.013Z,10.20
2023-04-02T19:14:21.031Z,11.07
2023-04-02T19:19:27.266Z,9.65
2023-04-02T19:24:44.153Z,7.45
2023-04-02T19:29:52.577Z,12.15
2023-04-02T19:35:07.449Z,10.20
2023-04-02T19:40:22.114Z,10.38
2023-04-02T19:45:39.225Z,10.80
2023-04-02T19:50:42.500Z,8.23
2023-04-02T19:55:45.149Z,9.90
2023-04-02T20:00:47.942Z,11.27
2023-04-02T20:05:51.022Z,7.60
2023-04-02T20:10:53.643Z,14.20
2023-04-02T20:15:58.861Z,11.88
2023-04-02T20:21:04.318Z,10.95
2023-04-02T20:26:07.286Z,14.77
2023-04-02T20:31:11.450Z,16.30
2023-04-02T20:36:16.027Z,19.83
2023-04-02T20:41:18.810Z,17.10
2023-04-02T20:46:21.281Z,10.50
2023-04-02T20:51:23.823Z,9.45
2023-04-02T20:56:26.948Z,15.25
2023-04-02T21:01:30.635Z,17.63
2023-04-02T21:06:34.437Z,19.73
2023-04-02T21:11:37.607Z,13.32
2023-04-02T21:16:40.554Z,10.73
2023-04-02T21:21:44.795Z,8.80
2023-04-02T21:26:47.747Z,9.23
2023-04-02T21:31:50.939Z,15.23
2023-04-02T21:36:53.470Z,22.73
2023-04-02T21:41:56.322Z,24.85
2023-04-02T21:46:58.893Z,29.75
2023-04-02T21:52:01.797Z,23.88
2023-04-02T21:57:04.278Z,15.07
2023-04-02T22:02:07.196Z,17.65
2023-04-02T22:07:09.691Z,15.02
2023-04-02T22:12:12.805Z,14.25
2023-04-02T22:17:15.337Z,15.23
2023-04-02T22:22:17.755Z,12.48
2023-04-02T22:27:20.488Z,15.07
2023-04-02T22:32:23.019Z,18.42
2023-04-02T22:37:25.762Z,20.90
2023-04-02T22:42:28.336Z,14.25
2023-04-02T22:47:30.910Z,9.52
2023-04-02T22:52:33.463Z,16.13
2023-04-02T22:57:36.218Z,11.93
2023-04-02T23:02:39.445Z,13.50
2023-04-02T23:07:42.000Z,12.50
2023-04-02T23:12:44.453Z,19.08
2023-04-02T23:17:46.909Z,18.42
2023-04-02T23:22:49.861Z,12.02
2023-04-02T23:27:52.621Z,16.55
2023-04-02T23:32:55.517Z,16.48
2023-04-02T23:37:58.104Z,12.63
2023-04-02T23:43:00.574Z,12.73
2023-04-02T23:48:03.015Z,13.18
2023-04-02T23:53:05.662Z,12.80
2023-04-02T23:58:08.299Z,13.50
